createdAt,value
2022-10-04T00:01:07.767Z,12.10
2022-10-04T00:03:42.043Z,12.10
2022-10-04T00:06:17.092Z,12.00
2022-10-04T00:08:49.408Z,12.00
2022-10-04T00:11:22.148Z,12.00
2022-10-04T00:13:52.908Z,11.90
2022-10-04T00:16:24.890Z,11.90
2022-10-04T00:19:04.200Z,11.90
2022-10-04T00:22:08.188Z,11.90
2022-10-04T00:24:38.328Z,11.90
2022-10-04T00:27:19.923Z,11.90
2022-10-04T00:29:51.834Z,11.90
2022-10-04T00:32:30.321Z,11.80
2022-10-04T00:35:00.596Z,11.80
2022-10-04T00:37:49.240Z,11.80
2022-10-04T00:40:21.067Z,11.80
2022-10-04T00:42:59.566Z,11.70
2022-10-04T00:45:37.420Z,11.70
2022-10-04T00:48:31.377Z,11.70
2022-10-04T00:51:05.835Z,11.70
2022-10-04T00:53:51.344Z,11.60
2022-10-04T00:56:26.891Z,11.70
2022-10-04T00:59:18.438Z,11.80
2022-10-04T01:01:50.280Z,11.80
2022-10-04T01:04:29.270Z,11.90
2022-10-04T01:07:01.196Z,11.90
2022-10-04T01:09:30.554Z,11.90
2022-10-04T01:12:04.642Z,11.90
2022-10-04T01:14:41.187Z,11.90
2022-10-04T01:17:09.867Z,11.90
2022-10-04T01:19:37.693Z,11.90
2022-10-04T01:22:14.927Z,11.90
2022-10-04T01:24:45.949Z,11.90
2022-10-04T01:27:35.058Z,11.90
2022-10-04T01:30:05.214Z,11.90
2022-10-04T01:32:33.111Z,11.90
2022-10-04T01:35:00.872Z,11.90
2022-10-04T01:37:28.970Z,11.90
2022-10-04T01:39:58.703Z,11.90
2022-10-04T01:42:33.481Z,11.90
2022-10-04T01:45:08.590Z,11.80
2022-10-04T01:47:42.711Z,11.80
2022-10-04T01:50:15.940Z,11.70
2022-10-04T01:52:49.142Z,11.70
2022-10-04T01:55:21.664Z,11.70
2022-10-04T01:57:53.711Z,11.60
2022-10-04T02:00:23.263Z,11.60
2022-10-04T02:02:55.833Z,11.50
2022-10-04T02:05:29.846Z,11.50
2022-10-04T02:08:02.708Z,11.60
2022-10-04T02:10:43.012Z,11.60
2022-10-04T02:13:15.119Z,11.60
2022-10-04T02:18:59.027Z,11.60
2022-10-04T02:21:27.322Z,11.60
2022-10-04T02:23:55.884Z,11.60
2022-10-04T02:26:25.361Z,11.60
2022-10-04T02:28:55.667Z,11.70
2022-10-04T02:31:42.892Z,11.70
2022-10-04T02:34:12.025Z,11.80
2022-10-04T02:36:40.926Z,11.80
2022-10-04T02:39:15.724Z,11.80
2022-10-04T02:41:48.793Z,11.90
2022-10-04T02:44:22.650Z,11.90
2022-10-04T02:46:54.669Z,11.90
2022-10-04T02:49:32.129Z,12.00
2022-10-04T02:52:04.314Z,12.00
2022-10-04T02:54:37.975Z,12.00
2022-10-04T02:57:15.879Z,12.10
2022-10-04T02:59:43.865Z,12.10
2022-10-04T03:02:29.395Z,12.10
2022-10-04T03:05:04.604Z,12.10
2022-10-04T03:07:33.796Z,12.00
2022-10-04T03:10:02.869Z,12.10
2022-10-04T03:12:32.297Z,12.10
2022-10-04T03:15:00.709Z,12.10
2022-10-04T03:17:29.729Z,12.10
2022-10-04T03:19:58.566Z,12.20
2022-10-04T03:22:26.734Z,12.20
2022-10-04T03:24:57.390Z,12.20
2022-10-04T03:27:29.167Z,12.20
2022-10-04T03:29:59.521Z,12.20
2022-10-04T03:32:30.736Z,12.20
2022-10-04T03:35:00.200Z,12.30
2022-10-04T03:37:32.210Z,12.20
2022-10-04T03:40:01.336Z,12.30
2022-10-04T03:42:31.572Z,12.20
2022-10-04T03:45:05.365Z,12.30
2022-10-04T03:47:36.528Z,12.30
2022-10-04T03:50:12.961Z,12.30
2022-10-04T03:52:45.796Z,12.30
2022-10-04T03:55:16.256Z,12.30
2022-10-04T03:57:44.592Z,12.30
2022-10-04T04:00:19.434Z,12.30
2022-10-04T04:02:53.627Z,12.30
2022-10-04T04:05:25.517Z,12.30
2022-10-04T04:08:01.814Z,12.20
2022-10-04T04:10:32.675Z,12.20
2022-10-04T04:13:05.332Z,12.20
2022-10-04T04:15:35.346Z,12.20
2022-10-04T04:18:06.142Z,12.20
2022-10-04T04:20:36.263Z,12.20
2022-10-04T04:23:13.643Z,12.20
2022-10-04T04:25:43.692Z,12.30
2022-10-04T04:28:25.939Z,12.20
2022-10-04T04:31:09.821Z,12.20
2022-10-04T04:33:46.707Z,12.20
2022-10-04T04:36:17.019Z,12.30
2022-10-04T04:38:59.154Z,12.30
2022-10-04T04:41:28.986Z,12.30
2022-10-04T04:43:56.731Z,12.30
2022-10-04T04:46:28.169Z,12.40
2022-10-04T04:49:01.843Z,12.50
2022-10-04T04:51:32.174Z,12.50
2022-10-04T04:54:04.805Z,12.60
2022-10-04T04:56:33.260Z,12.60
2022-10-04T04:59:04.198Z,12.60
2022-10-04T05:01:36.316Z,12.70
2022-10-04T05:04:06.677Z,12.60
2022-10-04T05:06:36.242Z,12.60
2022-10-04T05:09:05.310Z,12.70
2022-10-04T05:11:35.749Z,12.70
2022-10-04T05:14:07.475Z,12.60
2022-10-04T05:16:41.451Z,12.60
2022-10-04T05:19:15.043Z,12.60
2022-10-04T05:21:46.456Z,12.60
2022-10-04T05:24:20.617Z,12.60
2022-10-04T05:26:51.417Z,12.60
2022-10-04T05:29:22.255Z,12.50
2022-10-04T05:31:58.511Z,12.50
2022-10-04T05:34:29.717Z,12.50
2022-10-04T05:37:16.794Z,12.50
2022-10-04T05:39:50.717Z,12.40
2022-10-04T05:42:24.580Z,12.40
2022-10-04T05:44:53.893Z,12.40
2022-10-04T05:47:27.202Z,12.40
2022-10-04T05:49:57.836Z,12.40
2022-10-04T05:52:30.950Z,12.40
2022-10-04T05:55:28.769Z,12.30
2022-10-04T05:58:34.158Z,12.40
2022-10-04T06:01:22.418Z,12.30
2022-10-04T06:04:05.722Z,12.30
2022-10-04T06:06:41.204Z,12.40
2022-10-04T06:09:17.651Z,12.40
2022-10-04T06:12:01.130Z,12.50
2022-10-04T06:14:58.504Z,12.50
2022-10-04T06:17:39.388Z,12.50
2022-10-04T06:20:34.935Z,12.50
2022-10-04T06:23:06.938Z,12.60
2022-10-04T06:25:39.558Z,12.50
2022-10-04T06:28:19.342Z,12.40
2022-10-04T06:31:05.560Z,12.30
2022-10-04T06:33:49.612Z,12.20
2022-10-04T06:36:38.699Z,12.10
2022-10-04T06:39:32.723Z,12.00
2022-10-04T06:42:25.060Z,12.00
2022-10-04T06:45:06.913Z,12.00
2022-10-04T06:47:48.185Z,11.90
2022-10-04T06:50:26.606Z,11.90
2022-10-04T06:53:15.492Z,12.00
2022-10-04T06:56:05.511Z,12.00
2022-10-04T06:58:50.823Z,12.10
2022-10-04T07:01:27.889Z,12.20
2022-10-04T07:04:03.105Z,12.30
2022-10-04T07:06:35.319Z,12.40
2022-10-04T07:09:08.002Z,12.60
2022-10-04T07:11:46.054Z,12.70
2022-10-04T07:14:17.866Z,12.90
2022-10-04T07:16:49.130Z,13.10
2022-10-04T07:19:37.604Z,13.30
2022-10-04T07:22:17.108Z,13.50
2022-10-04T07:25:02.104Z,13.50
2022-10-04T07:27:33.992Z,13.60
2022-10-04T07:30:05.227Z,13.80
2022-10-04T07:32:36.621Z,13.90
2022-10-04T07:35:14.888Z,14.00
2022-10-04T07:37:52.646Z,14.10
2022-10-04T07:40:26.694Z,14.10
2022-10-04T07:42:59.899Z,14.20
2022-10-04T07:45:32.501Z,14.30
2022-10-04T07:48:06.133Z,14.40
2022-10-04T07:50:42.737Z,14.40
2022-10-04T07:53:15.848Z,14.50
2022-10-04T07:55:53.605Z,14.50
2022-10-04T07:58:42.087Z,14.60
2022-10-04T08:01:26.048Z,14.60
2022-10-04T08:04:15.262Z,14.60
2022-10-04T08:06:57.958Z,14.60
2022-10-04T08:09:47.791Z,14.60
2022-10-04T08:12:24.161Z,14.70
2022-10-04T08:14:57.858Z,14.70
2022-10-04T08:17:42.634Z,14.80
2022-10-04T08:20:26.911Z,14.90
2022-10-04T08:23:26.482Z,15.00
2022-10-04T08:26:03.449Z,15.00
2022-10-04T08:29:03.646Z,15.20
2022-10-04T08:31:41.685Z,15.30
2022-10-04T08:34:31.765Z,15.30
2022-10-04T08:37:14.001Z,15.40
2022-10-04T08:39:57.574Z,15.50
2022-10-04T08:42:58.517Z,15.60
2022-10-04T08:45:54.951Z,15.60
2022-10-04T08:49:09.901Z,15.70
2022-10-04T08:52:20.545Z,15.70
2022-10-04T08:55:34.893Z,15.70
2022-10-04T08:58:16.826Z,15.80
2022-10-04T09:01:06.353Z,15.80
2022-10-04T09:04:22.739Z,15.90
2022-10-04T09:07:01.765Z,15.90
2022-10-04T09:09:57.166Z,15.90
2022-10-04T09:12:49.366Z,16.00
2022-10-04T09:15:31.388Z,16.10
2022-10-04T09:18:21.140Z,16.30
2022-10-04T09:20:57.684Z,16.30
2022-10-04T09:23:58.529Z,16.40
2022-10-04T09:26:37.186Z,16.40
2022-10-04T09:29:27.204Z,16.40
2022-10-04T09:32:22.864Z,16.40
2022-10-04T09:35:14.717Z,16.50
2022-10-04T09:37:56.328Z,16.60
2022-10-04T09:40:49.249Z,16.60
2022-10-04T09:43:45.555Z,16.70
2022-10-04T09:46:29.262Z,16.80
2022-10-04T09:49:06.349Z,16.80
2022-10-04T09:52:08.866Z,16.90
2022-10-04T09:55:14.411Z,16.90
2022-10-04T09:57:55.586Z,16.90
2022-10-04T10:00:25.690Z,17.00
2022-10-04T10:03:30.310Z,17.10
2022-10-04T10:06:32.610Z,17.10
2022-10-04T10:09:48.428Z,17.20
2022-10-04T10:13:01.766Z,17.20
2022-10-04T10:15:38.864Z,17.20
2022-10-04T10:18:18.394Z,17.10
2022-10-04T10:21:13.305Z,17.00
2022-10-04T10:24:13.331Z,16.80
2022-10-04T10:27:03.523Z,16.60
2022-10-04T10:30:06.743Z,16.40
2022-10-04T10:32:59.712Z,16.20
2022-10-04T10:35:38.770Z,16.10
2022-10-04T10:38:32.091Z,15.90
2022-10-04T10:41:23.142Z,16.00
2022-10-04T10:44:07.902Z,16.10
2022-10-04T10:46:59.354Z,16.20
2022-10-04T10:49:42.063Z,16.20
2022-10-04T10:52:45.429Z,16.20
2022-10-04T10:55:32.393Z,16.20
2022-10-04T10:58:26.323Z,16.20
2022-10-04T11:01:10.418Z,16.20
2022-10-04T11:04:08.513Z,16.30
2022-10-04T11:07:22.140Z,16.20
2022-10-04T11:10:32.276Z,16.20
2022-10-04T11:13:37.542Z,16.30
2022-10-04T11:16:24.054Z,16.50
2022-10-04T11:19:30.782Z,16.60
2022-10-04T11:22:46.773Z,16.70
2022-10-04T11:25:48.628Z,16.80
2022-10-04T11:28:21.915Z,16.90
2022-10-04T11:31:32.202Z,17.10
2022-10-04T11:34:23.309Z,17.20
2022-10-04T11:37:06.032Z,17.30
2022-10-04T11:39:54.198Z,17.30
2022-10-04T11:42:36.837Z,17.40
2022-10-04T11:45:33.528Z,17.40
2022-10-04T11:48:11.453Z,17.50
2022-10-04T11:51:04.587Z,17.60
2022-10-04T11:54:17.027Z,17.60
2022-10-04T11:57:04.276Z,17.80
2022-10-04T11:59:46.831Z,17.80
2022-10-04T12:02:47.193Z,17.70
2022-10-04T12:05:33.383Z,17.60
2022-10-04T12:08:17.713Z,17.50
2022-10-04T12:11:01.322Z,17.50
2022-10-04T12:13:49.594Z,17.40
2022-10-04T12:16:37.979Z,17.40
2022-10-04T12:19:37.354Z,17.30
2022-10-04T12:22:18.728Z,17.30
2022-10-04T12:25:11.284Z,17.30
2022-10-04T12:28:25.485Z,17.40
2022-10-04T12:31:20.241Z,17.50
2022-10-04T12:33:56.206Z,17.50
2022-10-04T12:36:35.337Z,17.60
2022-10-04T12:39:29.647Z,17.70
2022-10-04T12:42:11.757Z,17.70
2022-10-04T12:44:55.334Z,17.60
2022-10-04T12:47:45.830Z,17.60
2022-10-04T12:50:22.569Z,17.70
2022-10-04T12:52:56.280Z,17.70
2022-10-04T12:55:47.704Z,17.70
2022-10-04T12:58:25.695Z,17.80
2022-10-04T13:01:02.083Z,17.90
2022-10-04T13:03:40.177Z,17.80
2022-10-04T13:06:16.035Z,17.80
2022-10-04T13:08:56.404Z,17.80
2022-10-04T13:11:53.225Z,17.70
2022-10-04T13:14:55.943Z,17.60
2022-10-04T13:17:39.456Z,17.70
2022-10-04T13:20:29.901Z,17.70
2022-10-04T13:23:05.523Z,17.70
2022-10-04T13:26:04.153Z,17.70
2022-10-04T13:28:39.225Z,17.70
2022-10-04T13:31:12.795Z,17.60
2022-10-04T13:33:47.119Z,17.60
2022-10-04T13:36:23.936Z,17.60
2022-10-04T13:39:20.497Z,17.70
2022-10-04T13:42:13.065Z,17.70
2022-10-04T13:45:04.071Z,17.60
2022-10-04T13:47:55.358Z,17.70
2022-10-04T13:50:34.101Z,17.70
2022-10-04T13:53:30.895Z,17.70
2022-10-04T13:56:22.491Z,17.60
2022-10-04T13:58:59.279Z,17.50
2022-10-04T14:02:04.432Z,17.50
2022-10-04T14:05:15.835Z,17.50
2022-10-04T14:07:59.342Z,17.50
2022-10-04T14:10:49.135Z,17.50
2022-10-04T14:13:48.852Z,17.40
2022-10-04T14:16:34.125Z,17.40
2022-10-04T14:19:36.492Z,17.40
2022-10-04T14:22:51.683Z,17.40
2022-10-04T14:25:50.441Z,17.40
2022-10-04T14:28:54.728Z,17.40
2022-10-04T14:31:46.607Z,17.30
2022-10-04T14:34:35.206Z,17.40
2022-10-04T14:37:38.246Z,17.40
2022-10-04T14:40:31.623Z,17.30
2022-10-04T14:43:35.261Z,17.30
2022-10-04T14:46:18.979Z,17.30
2022-10-04T14:49:05.274Z,17.30
2022-10-04T14:52:04.531Z,17.30
2022-10-04T14:54:43.060Z,17.30
2022-10-04T14:57:20.959Z,17.30
2022-10-04T15:00:18.893Z,17.30
2022-10-04T15:03:08.255Z,17.20
2022-10-04T15:06:11.025Z,17.20
2022-10-04T15:09:12.934Z,17.20
2022-10-04T15:12:25.547Z,17.20
2022-10-04T15:15:02.933Z,17.20
2022-10-04T15:17:37.751Z,17.10
2022-10-04T15:20:19.915Z,17.00
2022-10-04T15:22:53.897Z,17.00
2022-10-04T15:25:40.130Z,17.00
2022-10-04T15:28:29.091Z,16.90
2022-10-04T15:31:01.663Z,16.90
2022-10-04T15:33:36.017Z,16.80
2022-10-04T15:36:39.449Z,16.80
2022-10-04T15:39:24.074Z,16.80
2022-10-04T15:41:59.350Z,16.80
2022-10-04T15:45:06.801Z,16.70
2022-10-04T15:47:50.642Z,16.80
2022-10-04T15:50:27.199Z,16.70
2022-10-04T15:53:14.877Z,16.70
2022-10-04T15:56:14.672Z,16.70
2022-10-04T15:58:54.431Z,16.70
2022-10-04T16:01:45.764Z,16.60
2022-10-04T16:04:48.295Z,16.50
2022-10-04T16:07:39.831Z,16.50
2022-10-04T16:10:17.972Z,16.40
2022-10-04T16:13:14.221Z,16.30
2022-10-04T16:15:48.058Z,16.20
2022-10-04T16:18:37.668Z,16.20
2022-10-04T16:21:12.763Z,16.10
2022-10-04T16:23:43.181Z,16.20
2022-10-04T16:26:13.999Z,16.10
2022-10-04T16:29:01.352Z,16.10
2022-10-04T16:31:58.703Z,16.10
2022-10-04T16:34:48.099Z,16.10
2022-10-04T16:37:28.292Z,16.00
2022-10-04T16:40:00.607Z,15.90
2022-10-04T16:42:34.610Z,15.80
2022-10-04T16:45:46.558Z,15.70
2022-10-04T16:48:25.821Z,15.60
2022-10-04T16:51:28.515Z,15.50
2022-10-04T16:54:03.559Z,15.40
2022-10-04T16:56:34.603Z,15.20
2022-10-04T16:59:03.137Z,15.10
2022-10-04T17:02:07.087Z,15.10
2022-10-04T17:04:55.380Z,15.00
2022-10-04T17:07:34.810Z,14.90
2022-10-04T17:10:18.929Z,14.80
2022-10-04T17:12:55.766Z,14.80
2022-10-04T17:15:34.608Z,14.80
2022-10-04T17:18:19.526Z,14.70
2022-10-04T17:20:56.951Z,14.70
2022-10-04T17:23:54.276Z,14.60
2022-10-04T17:26:39.121Z,14.60
2022-10-04T17:29:25.538Z,14.50
2022-10-04T17:31:57.964Z,14.40
2022-10-04T17:34:37.015Z,14.40
2022-10-04T17:37:16.011Z,14.40
2022-10-04T17:39:49.846Z,14.40
2022-10-04T17:42:27.757Z,14.40
2022-10-04T17:45:22.407Z,14.40
2022-10-04T17:48:18.042Z,14.40
2022-10-04T17:51:12.350Z,14.30
2022-10-04T17:54:02.427Z,14.30
2022-10-04T17:56:36.104Z,14.30
2022-10-04T17:59:09.307Z,14.30
2022-10-04T18:01:43.099Z,14.30
2022-10-04T18:04:18.973Z,14.20
2022-10-04T18:06:53.245Z,14.20
2022-10-04T18:09:25.938Z,14.20
2022-10-04T18:11:57.994Z,14.20
2022-10-04T18:14:52.013Z,14.20
2022-10-04T18:17:36.054Z,14.10
2022-10-04T18:20:30.813Z,14.10
2022-10-04T18:23:01.348Z,14.10
2022-10-04T18:25:31.166Z,14.10
2022-10-04T18:28:13.010Z,14.00
2022-10-04T18:30:58.948Z,14.00
2022-10-04T18:33:32.513Z,13.90
2022-10-04T18:36:07.053Z,13.80
2022-10-04T18:38:35.815Z,13.80
2022-10-04T18:41:17.389Z,13.70
2022-10-04T18:44:05.952Z,13.70
2022-10-04T18:46:40.759Z,13.60
2022-10-04T18:49:16.518Z,13.60
2022-10-04T18:51:54.825Z,13.50
2022-10-04T18:54:29.862Z,13.50
2022-10-04T18:57:10.726Z,13.50
2022-10-04T19:00:10.821Z,13.40
2022-10-04T19:02:46.009Z,13.40
2022-10-04T19:05:19.230Z,13.30
2022-10-04T19:07:55.358Z,13.20
2022-10-04T19:10:27.688Z,13.20
2022-10-04T19:13:17.743Z,13.20
2022-10-04T19:16:05.559Z,13.10
2022-10-04T19:18:54.965Z,13.10
2022-10-04T19:21:29.298Z,13.00
2022-10-04T19:24:34.668Z,13.00
2022-10-04T19:27:06.225Z,12.90
2022-10-04T19:29:50.822Z,12.90
2022-10-04T19:32:30.551Z,12.90
2022-10-04T19:35:09.217Z,12.90
2022-10-04T19:37:46.990Z,12.90
2022-10-04T19:40:22.145Z,12.90
2022-10-04T19:42:59.601Z,12.90
2022-10-04T19:45:35.144Z,12.90
2022-10-04T19:48:09.270Z,12.90
2022-10-04T19:50:45.000Z,12.90
2022-10-04T19:53:19.777Z,12.90
2022-10-04T19:55:53.984Z,12.90
2022-10-04T19:58:31.844Z,12.80
2022-10-04T20:01:00.092Z,12.80
2022-10-04T20:03:29.989Z,12.70
2022-10-04T20:05:58.358Z,12.60
2022-10-04T20:09:01.515Z,12.60
2022-10-04T20:11:48.633Z,12.50
2022-10-04T20:14:53.183Z,12.50
2022-10-04T20:17:34.532Z,12.40
2022-10-04T20:20:04.145Z,12.40
2022-10-04T20:22:58.164Z,12.30
2022-10-04T20:26:01.299Z,12.30
2022-10-04T20:28:41.793Z,12.30
2022-10-04T20:31:11.203Z,12.30
2022-10-04T20:33:51.451Z,12.30
2022-10-04T20:36:52.245Z,12.40
2022-10-04T20:39:59.969Z,12.50
2022-10-04T20:42:37.107Z,12.50
2022-10-04T20:45:25.822Z,12.60
2022-10-04T20:47:57.546Z,12.60
2022-10-04T20:50:50.145Z,12.70
2022-10-04T20:53:20.937Z,12.70
2022-10-04T20:55:49.417Z,12.80
2022-10-04T20:58:32.806Z,12.80
2022-10-04T21:01:11.820Z,12.80
2022-10-04T21:03:39.656Z,12.90
2022-10-04T21:06:09.492Z,12.90
2022-10-04T21:08:38.428Z,12.90
2022-10-04T21:11:15.518Z,13.00
2022-10-04T21:13:54.048Z,13.00
2022-10-04T21:16:49.930Z,13.00
2022-10-04T21:19:51.298Z,13.00
2022-10-04T21:22:38.559Z,13.00
2022-10-04T21:25:30.874Z,13.00
2022-10-04T21:28:31.785Z,13.10
2022-10-04T21:31:02.638Z,13.00
2022-10-04T21:33:34.128Z,13.00
2022-10-04T21:36:01.885Z,13.00
2022-10-04T21:38:29.612Z,13.00
2022-10-04T21:40:57.369Z,13.00
2022-10-04T21:43:25.958Z,13.00
2022-10-04T21:45:53.980Z,13.00
2022-10-04T21:48:23.850Z,13.00
2022-10-04T21:50:52.826Z,13.10
2022-10-04T21:53:21.216Z,13.10
2022-10-04T21:55:49.029Z,13.20
2022-10-04T21:58:17.285Z,13.20
2022-10-04T22:00:45.169Z,13.20
2022-10-04T22:03:12.909Z,13.30
2022-10-04T22:05:42.092Z,13.30
2022-10-04T22:08:09.830Z,13.40
2022-10-04T22:10:37.596Z,13.50
2022-10-04T22:13:05.324Z,13.50
2022-10-04T22:15:33.021Z,13.50
2022-10-04T22:18:00.736Z,13.50
2022-10-04T22:20:28.787Z,13.60
2022-10-04T22:22:59.746Z,13.70
2022-10-04T22:25:28.818Z,13.70
2022-10-04T22:27:56.626Z,13.80
2022-10-04T22:30:27.044Z,13.90
2022-10-04T22:32:56.265Z,13.90
2022-10-04T22:35:24.363Z,14.00
2022-10-04T22:37:52.454Z,14.00
2022-10-04T22:40:23.513Z,14.10
2022-10-04T22:42:53.324Z,14.10
2022-10-04T22:45:23.768Z,14.10
2022-10-04T22:47:52.696Z,14.20
2022-10-04T22:50:30.192Z,14.20
2022-10-04T22:52:58.462Z,14.20
2022-10-04T22:55:27.581Z,14.20
2022-10-04T22:57:56.284Z,14.20
2022-10-04T23:00:24.546Z,14.20
2022-10-04T23:02:52.385Z,14.10
2022-10-04T23:05:21.748Z,14.10
2022-10-04T23:07:50.037Z,14.10
2022-10-04T23:10:20.201Z,14.10
2022-10-04T23:12:50.755Z,14.20
2022-10-04T23:15:20.720Z,14.20
2022-10-04T23:17:55.133Z,14.20
2022-10-04T23:20:23.560Z,14.10
2022-10-04T23:22:52.703Z,14.20
2022-10-04T23:25:22.230Z,14.10
2022-10-04T23:27:51.345Z,14.20
2022-10-04T23:30:20.842Z,14.20
2022-10-04T23:32:51.479Z,14.20
2022-10-04T23:35:22.920Z,14.30
2022-10-04T23:37:51.335Z,14.30
2022-10-04T23:40:21.227Z,14.30
2022-10-04T23:42:52.159Z,14.30
2022-10-04T23:45:22.063Z,14.40
2022-10-04T23:47:52.585Z,14.40
2022-10-04T23:50:26.342Z,14.40
2022-10-04T23:52:58.125Z,14.40
2022-10-04T23:55:28.827Z,14.40
2022-10-04T23:57:59.945Z,14.40
